sensor_id;sensor_type;location;lat;lon;timestamp;P1;durP1;ratioP1;P2;durP2;ratioP2
12593;SDS011;6362;50.208;9.182;2024-02-21T00:00:02;8.80;;;3.17;;
12593;SDS011;6362;50.208;9.182;2024-02-21T00:02:27;11.18;;;3.47;;
12593;SDS011;6362;50.208;9.182;2024-02-21T00:04:53;11.43;;;3.22;;
12593;SDS011;6362;50.208;9.182;2024-02-21T00:07:18;16.40;;;3.88;;
12593;SDS011;6362;50.208;9.182;2024-02-21T00:09:44;7.80;;;4.10;;
12593;SDS011;6362;50.208;9.182;2024-02-21T00:12:09;13.20;;;3.80;;
12593;SDS011;6362;50.208;9.182;2024-02-21T00:14:35;11.18;;;3.45;;
12593;SDS011;6362;50.208;9.182;2024-02-21T00:17:00;14.65;;;3.65;;
12593;SDS011;6362;50.208;9.182;2024-02-21T00:19:25;12.15;;;3.28;;
12593;SDS011;6362;50.208;9.182;2024-02-21T00:21:51;13.63;;;3.53;;
12593;SDS011;6362;50.208;9.182;2024-02-21T00:24:16;10.63;;;3.80;;
12593;SDS011;6362;50.208;9.182;2024-02-21T00:26:42;8.57;;;3.50;;
12593;SDS011;6362;50.208;9.182;2024-02-21T00:29:08;10.63;;;3.70;;
12593;SDS011;6362;50.208;9.182;2024-02-21T00:31:34;14.95;;;5.10;;
12593;SDS011;6362;50.208;9.182;2024-02-21T00:33:59;11.38;;;4.05;;
12593;SDS011;6362;50.208;9.182;2024-02-21T00:36:25;11.75;;;3.35;;
12593;SDS011;6362;50.208;9.182;2024-02-21T00:38:50;10.70;;;3.75;;
12593;SDS011;6362;50.208;9.182;2024-02-21T00:41:16;12.68;;;3.88;;
12593;SDS011;6362;50.208;9.182;2024-02-21T00:43:41;9.93;;;3.63;;
12593;SDS011;6362;50.208;9.182;2024-02-21T00:46:07;12.75;;;3.85;;
12593;SDS011;6362;50.208;9.182;2024-02-21T00:48:33;14.65;;;3.95;;
12593;SDS011;6362;50.208;9.182;2024-02-21T00:50:59;15.05;;;4.28;;
12593;SDS011;6362;50.208;9.182;2024-02-21T00:53:24;13.05;;;3.38;;
12593;SDS011;6362;50.208;9.182;2024-02-21T00:55:50;13.40;;;4.22;;
12593;SDS011;6362;50.208;9.182;2024-02-21T00:58:15;18.15;;;4.28;;
12593;SDS011;6362;50.208;9.182;2024-02-21T01:00:41;12.85;;;4.55;;
12593;SDS011;6362;50.208;9.182;2024-02-21T01:03:06;17.30;;;4.57;;
12593;SDS011;6362;50.208;9.182;2024-02-21T01:05:31;11.27;;;3.72;;
12593;SDS011;6362;50.208;9.182;2024-02-21T01:07:57;13.05;;;5.28;;
12593;SDS011;6362;50.208;9.182;2024-02-21T01:10:23;10.63;;;3.88;;
12593;SDS011;6362;50.208;9.182;2024-02-21T01:12:50;11.57;;;3.88;;
12593;SDS011;6362;50.208;9.182;2024-02-21T01:15:15;10.18;;;3.75;;
12593;SDS011;6362;50.208;9.182;2024-02-21T01:17:41;12.85;;;4.97;;
12593;SDS011;6362;50.208;9.182;2024-02-21T01:20:07;15.52;;;4.60;;
12593;SDS011;6362;50.208;9.182;2024-02-21T01:22:33;14.63;;;4.32;;
12593;SDS011;6362;50.208;9.182;2024-02-21T01:24:58;9.65;;;4.00;;
12593;SDS011;6362;50.208;9.182;2024-02-21T01:27:23;7.45;;;4.10;;
12593;SDS011;6362;50.208;9.182;2024-02-21T01:29:49;11.70;;;4.63;;
12593;SDS011;6362;50.208;9.182;2024-02-21T01:32:15;13.80;;;4.18;;
12593;SDS011;6362;50.208;9.182;2024-02-21T01:34:40;13.18;;;3.95;;
12593;SDS011;6362;50.208;9.182;2024-02-21T01:37:06;8.48;;;3.88;;
12593;SDS011;6362;50.208;9.182;2024-02-21T01:39:32;13.10;;;4.38;;
12593;SDS011;6362;50.208;9.182;2024-02-21T01:41:58;15.30;;;4.53;;
12593;SDS011;6362;50.208;9.182;2024-02-21T01:44:24;12.80;;;4.72;;
12593;SDS011;6362;50.208;9.182;2024-02-21T01:46:50;8.00;;;4.28;;
12593;SDS011;6362;50.208;9.182;2024-02-21T01:49:17;16.73;;;4.35;;
12593;SDS011;6362;50.208;9.182;2024-02-21T01:51:43;8.57;;;3.40;;
12593;SDS011;6362;50.208;9.182;2024-02-21T01:54:09;12.55;;;4.40;;
12593;SDS011;6362;50.208;9.182;2024-02-21T01:56:36;15.45;;;4.80;;
12593;SDS011;6362;50.208;9.182;2024-02-21T01:59:02;14.73;;;4.47;;
12593;SDS011;6362;50.208;9.182;2024-02-21T02:01:29;12.65;;;3.97;;
12593;SDS011;6362;50.208;9.182;2024-02-21T02:03:54;11.95;;;4.55;;
12593;SDS011;6362;50.208;9.182;2024-02-21T02:06:20;10.55;;;4.75;;
12593;SDS011;6362;50.208;9.182;2024-02-21T02:08:46;13.60;;;5.07;;
12593;SDS011;6362;50.208;9.182;2024-02-21T02:11:13;9.07;;;4.25;;
12593;SDS011;6362;50.208;9.182;2024-02-21T02:13:39;8.20;;;4.18;;
12593;SDS011;6362;50.208;9.182;2024-02-21T02:16:04;11.80;;;4.45;;
12593;SDS011;6362;50.208;9.182;2024-02-21T02:18:30;10.18;;;3.97;;
12593;SDS011;6362;50.208;9.182;2024-02-21T02:20:55;9.68;;;3.80;;
12593;SDS011;6362;50.208;9.182;2024-02-21T02:23:23;16.75;;;6.07;;
12593;SDS011;6362;50.208;9.182;2024-02-21T02:25:54;10.10;;;4.45;;
12593;SDS011;6362;50.208;9.182;2024-02-21T02:28:21;10.38;;;4.28;;
12593;SDS011;6362;50.208;9.182;2024-02-21T02:30:47;13.27;;;5.78;;
12593;SDS011;6362;50.208;9.182;2024-02-21T02:33:13;13.43;;;5.28;;
12593;SDS011;6362;50.208;9.182;2024-02-21T02:35:38;16.10;;;5.45;;
12593;SDS011;6362;50.208;9.182;2024-02-21T02:38:04;15.10;;;5.22;;
12593;SDS011;6362;50.208;9.182;2024-02-21T02:40:33;14.63;;;6.38;;
12593;SDS011;6362;50.208;9.182;2024-02-21T02:42:59;12.88;;;5.00;;
12593;SDS011;6362;50.208;9.182;2024-02-21T02:45:25;12.52;;;5.60;;
12593;SDS011;6362;50.208;9.182;2024-02-21T02:47:52;12.20;;;5.43;;
12593;SDS011;6362;50.208;9.182;2024-02-21T02:50:19;18.05;;;5.47;;
12593;SDS011;6362;50.208;9.182;2024-02-21T02:52:45;13.50;;;5.10;;
12593;SDS011;6362;50.208;9.182;2024-02-21T02:55:11;11.82;;;5.13;;
12593;SDS011;6362;50.208;9.182;2024-02-21T02:57:36;11.00;;;5.22;;
12593;SDS011;6362;50.208;9.182;2024-02-21T03:00:02;11.45;;;6.07;;
12593;SDS011;6362;50.208;9.182;2024-02-21T03:02:28;14.02;;;6.28;;
12593;SDS011;6362;50.208;9.182;2024-02-21T03:04:53;14.02;;;5.50;;
12593;SDS011;6362;50.208;9.182;2024-02-21T03:07:19;13.38;;;5.28;;
12593;SDS011;6362;50.208;9.182;2024-02-21T03:09:45;12.93;;;5.72;;
12593;SDS011;6362;50.208;9.182;2024-02-21T03:12:10;14.45;;;6.25;;
12593;SDS011;6362;50.208;9.182;2024-02-21T03:14:36;11.00;;;6.05;;
12593;SDS011;6362;50.208;9.182;2024-02-21T03:17:02;12.25;;;6.00;;
12593;SDS011;6362;50.208;9.182;2024-02-21T03:19:28;15.93;;;5.97;;
12593;SDS011;6362;50.208;9.182;2024-02-21T03:21:54;11.85;;;5.72;;
12593;SDS011;6362;50.208;9.182;2024-02-21T03:24:20;15.43;;;5.90;;
12593;SDS011;6362;50.208;9.182;2024-02-21T03:26:47;12.65;;;5.75;;
12593;SDS011;6362;50.208;9.182;2024-02-21T03:29:14;14.38;;;5.97;;
12593;SDS011;6362;50.208;9.182;2024-02-21T03:31:40;13.70;;;5.70;;
12593;SDS011;6362;50.208;9.182;2024-02-21T03:34:06;14.90;;;6.10;;
12593;SDS011;6362;50.208;9.182;2024-02-21T03:36:32;13.93;;;6.50;;
12593;SDS011;6362;50.208;9.182;2024-02-21T03:38:58;27.85;;;9.15;;
12593;SDS011;6362;50.208;9.182;2024-02-21T03:41:23;13.10;;;6.40;;
12593;SDS011;6362;50.208;9.182;2024-02-21T03:43:49;17.45;;;6.68;;
12593;SDS011;6362;50.208;9.182;2024-02-21T03:46:14;13.15;;;7.13;;
12593;SDS011;6362;50.208;9.182;2024-02-21T03:48:40;17.48;;;7.03;;
12593;SDS011;6362;50.208;9.182;2024-02-21T03:51:06;16.17;;;6.88;;
12593;SDS011;6362;50.208;9.182;2024-02-21T03:53:32;15.38;;;6.80;;
12593;SDS011;6362;50.208;9.182;2024-02-21T03:55:57;15.43;;;6.93;;
12593;SDS011;6362;50.208;9.182;2024-02-21T03:58:28;12.90;;;6.10;;
12593;SDS011;6362;50.208;9.182;2024-02-21T04:00:53;14.50;;;5.95;;
12593;SDS011;6362;50.208;9.182;2024-02-21T04:03:19;16.25;;;6.90;;
12593;SDS011;6362;50.208;9.182;2024-02-21T04:05:44;18.27;;;6.53;;
12593;SDS011;6362;50.208;9.182;2024-02-21T04:08:10;21.55;;;6.55;;
12593;SDS011;6362;50.208;9.182;2024-02-21T04:10:36;18.45;;;7.85;;
12593;SDS011;6362;50.208;9.182;2024-02-21T04:13:02;17.05;;;6.47;;
12593;SDS011;6362;50.208;9.182;2024-02-21T04:15:28;18.75;;;8.77;;
12593;SDS011;6362;50.208;9.182;2024-02-21T04:17:53;16.92;;;7.20;;
12593;SDS011;6362;50.208;9.182;2024-02-21T04:20:18;13.60;;;6.20;;
12593;SDS011;6362;50.208;9.182;2024-02-21T04:22:44;16.55;;;6.88;;
12593;SDS011;6362;50.208;9.182;2024-02-21T04:25:10;12.85;;;6.70;;
12593;SDS011;6362;50.208;9.182;2024-02-21T04:27:36;13.25;;;6.57;;
12593;SDS011;6362;50.208;9.182;2024-02-21T04:30:03;15.05;;;6.03;;
12593;SDS011;6362;50.208;9.182;2024-02-21T04:32:28;11.90;;;6.15;;
12593;SDS011;6362;50.208;9.182;2024-02-21T04:34:54;14.60;;;7.65;;
12593;SDS011;6362;50.208;9.182;2024-02-21T04:37:19;11.75;;;5.85;;
12593;SDS011;6362;50.208;9.182;2024-02-21T04:39:45;15.82;;;6.93;;
12593;SDS011;6362;50.208;9.182;2024-02-21T04:42:11;21.33;;;6.40;;
12593;SDS011;6362;50.208;9.182;2024-02-21T04:44:37;14.80;;;6.32;;
12593;SDS011;6362;50.208;9.182;2024-02-21T04:47:03;19.25;;;6.85;;
12593;SDS011;6362;50.208;9.182;2024-02-21T04:49:29;15.07;;;6.63;;
12593;SDS011;6362;50.208;9.182;2024-02-21T04:51:54;17.02;;;5.82;;
12593;SDS011;6362;50.208;9.182;2024-02-21T04:54:20;14.40;;;6.47;;
12593;SDS011;6362;50.208;9.182;2024-02-21T04:56:45;13.57;;;5.53;;
12593;SDS011;6362;50.208;9.182;2024-02-21T04:59:11;21.90;;;6.30;;
12593;SDS011;6362;50.208;9.182;2024-02-21T05:01:36;16.40;;;6.80;;
12593;SDS011;6362;50.208;9.182;2024-02-21T05:04:02;20.90;;;7.65;;
12593;SDS011;6362;50.208;9.182;2024-02-21T05:06:27;14.50;;;6.13;;
12593;SDS011;6362;50.208;9.182;2024-02-21T05:08:53;18.65;;;6.65;;
12593;SDS011;6362;50.208;9.182;2024-02-21T05:11:20;18.10;;;5.60;;
12593;SDS011;6362;50.208;9.182;2024-02-21T05:13:46;15.63;;;6.95;;
12593;SDS011;6362;50.208;9.182;2024-02-21T05:16:12;18.92;;;7.38;;
12593;SDS011;6362;50.208;9.182;2024-02-21T05:18:37;14.88;;;6.53;;
12593;SDS011;6362;50.208;9.182;2024-02-21T05:21:03;14.68;;;6.03;;
12593;SDS011;6362;50.208;9.182;2024-02-21T05:23:29;15.50;;;5.97;;
12593;SDS011;6362;50.208;9.182;2024-02-21T05:25:55;19.33;;;6.68;;
12593;SDS011;6362;50.208;9.182;2024-02-21T05:28:20;19.98;;;7.72;;
12593;SDS011;6362;50.208;9.182;2024-02-21T05:30:45;13.93;;;7.10;;
12593;SDS011;6362;50.208;9.182;2024-02-21T05:33:11;13.05;;;6.72;;
12593;SDS011;6362;50.208;9.182;2024-02-21T05:35:37;13.02;;;5.82;;
12593;SDS011;6362;50.208;9.182;2024-02-21T05:38:03;15.55;;;8.57;;
12593;SDS011;6362;50.208;9.182;2024-02-21T05:40:36;14.15;;;7.63;;
12593;SDS011;6362;50.208;9.182;2024-02-21T05:43:02;22.38;;;7.75;;
12593;SDS011;6362;50.208;9.182;2024-02-21T05:45:27;21.27;;;7.78;;
12593;SDS011;6362;50.208;9.182;2024-02-21T05:47:53;17.40;;;7.03;;
12593;SDS011;6362;50.208;9.182;2024-02-21T05:50:18;18.90;;;6.57;;
12593;SDS011;6362;50.208;9.182;2024-02-21T05:52:44;17.05;;;6.78;;
12593;SDS011;6362;50.208;9.182;2024-02-21T05:55:09;14.02;;;6.63;;
12593;SDS011;6362;50.208;9.182;2024-02-21T05:57:35;14.68;;;6.70;;
12593;SDS011;6362;50.208;9.182;2024-02-21T06:00:03;14.15;;;6.15;;
12593;SDS011;6362;50.208;9.182;2024-02-21T06:02:30;13.18;;;6.78;;
12593;SDS011;6362;50.208;9.182;2024-02-21T06:04:55;12.52;;;5.82;;
12593;SDS011;6362;50.208;9.182;2024-02-21T06:07:21;14.95;;;5.95;;
12593;SDS011;6362;50.208;9.182;2024-02-21T06:09:46;14.15;;;6.53;;
12593;SDS011;6362;50.208;9.182;2024-02-21T06:12:12;14.90;;;6.00;;
12593;SDS011;6362;50.208;9.182;2024-02-21T06:14:37;15.57;;;6.07;;
12593;SDS011;6362;50.208;9.182;2024-02-21T06:17:03;15.27;;;7.25;;
12593;SDS011;6362;50.208;9.182;2024-02-21T06:19:28;14.77;;;7.00;;
12593;SDS011;6362;50.208;9.182;2024-02-21T06:21:54;14.15;;;6.80;;
12593;SDS011;6362;50.208;9.182;2024-02-21T06:24:19;12.48;;;6.43;;
12593;SDS011;6362;50.208;9.182;2024-02-21T06:26:44;19.60;;;6.35;;
12593;SDS011;6362;50.208;9.182;2024-02-21T06:29:11;17.27;;;7.07;;
12593;SDS011;6362;50.208;9.182;2024-02-21T06:31:36;14.57;;;6.70;;
12593;SDS011;6362;50.208;9.182;2024-02-21T06:34:02;19.50;;;6.93;;
12593;SDS011;6362;50.208;9.182;2024-02-21T06:36:28;15.95;;;7.10;;
12593;SDS011;6362;50.208;9.182;2024-02-21T06:38:54;13.50;;;6.72;;
12593;SDS011;6362;50.208;9.182;2024-02-21T06:41:19;16.88;;;6.00;;
12593;SDS011;6362;50.208;9.182;2024-02-21T06:43:48;19.85;;;7.28;;
12593;SDS011;6362;50.208;9.182;2024-02-21T06:46:23;16.20;;;8.60;;
12593;SDS011;6362;50.208;9.182;2024-02-21T06:48:53;13.50;;;7.22;;
12593;SDS011;6362;50.208;9.182;2024-02-21T06:51:21;17.13;;;6.32;;
12593;SDS011;6362;50.208;9.182;2024-02-21T06:53:47;19.58;;;7.95;;
12593;SDS011;6362;50.208;9.182;2024-02-21T06:56:12;17.30;;;7.00;;
12593;SDS011;6362;50.208;9.182;2024-02-21T06:58:38;12.63;;;6.40;;
12593;SDS011;6362;50.208;9.182;2024-02-21T07:01:04;15.48;;;6.72;;
12593;SDS011;6362;50.208;9.182;2024-02-21T07:03:29;13.35;;;6.07;;
12593;SDS011;6362;50.208;9.182;2024-02-21T07:05:55;16.73;;;6.72;;
12593;SDS011;6362;50.208;9.182;2024-02-21T07:08:20;15.95;;;6.55;;
12593;SDS011;6362;50.208;9.182;2024-02-21T07:10:47;13.98;;;7.00;;
12593;SDS011;6362;50.208;9.182;2024-02-21T07:13:12;13.05;;;7.13;;
12593;SDS011;6362;50.208;9.182;2024-02-21T07:15:38;17.65;;;6.28;;
12593;SDS011;6362;50.208;9.182;2024-02-21T07:18:04;11.77;;;5.97;;
12593;SDS011;6362;50.208;9.182;2024-02-21T07:20:29;12.38;;;6.18;;
12593;SDS011;6362;50.208;9.182;2024-02-21T07:22:55;12.02;;;5.18;;
12593;SDS011;6362;50.208;9.182;2024-02-21T07:25:20;16.80;;;6.65;;
12593;SDS011;6362;50.208;9.182;2024-02-21T07:27:46;17.90;;;5.97;;
12593;SDS011;6362;50.208;9.182;2024-02-21T07:30:11;15.90;;;6.20;;
12593;SDS011;6362;50.208;9.182;2024-02-21T07:32:37;13.32;;;5.63;;
12593;SDS011;6362;50.208;9.182;2024-02-21T07:35:03;17.50;;;6.03;;
12593;SDS011;6362;50.208;9.182;2024-02-21T07:37:30;13.48;;;5.85;;
12593;SDS011;6362;50.208;9.182;2024-02-21T07:39:56;16.95;;;5.68;;
12593;SDS011;6362;50.208;9.182;2024-02-21T07:42:21;14.00;;;5.70;;
12593;SDS011;6362;50.208;9.182;2024-02-21T07:44:47;15.52;;;6.70;;
12593;SDS011;6362;50.208;9.182;2024-02-21T07:47:12;11.35;;;5.68;;
12593;SDS011;6362;50.208;9.182;2024-02-21T07:49:41;13.20;;;5.80;;
12593;SDS011;6362;50.208;9.182;2024-02-21T07:52:09;17.85;;;6.28;;
12593;SDS011;6362;50.208;9.182;2024-02-21T07:54:35;15.98;;;6.18;;
12593;SDS011;6362;50.208;9.182;2024-02-21T07:57:00;12.93;;;5.68;;
12593;SDS011;6362;50.208;9.182;2024-02-21T07:59:25;17.23;;;6.63;;
12593;SDS011;6362;50.208;9.182;2024-02-21T08:01:51;11.40;;;6.10;;
12593;SDS011;6362;50.208;9.182;2024-02-21T08:04:16;18.45;;;7.95;;
12593;SDS011;6362;50.208;9.182;2024-02-21T08:06:42;16.92;;;5.45;;
12593;SDS011;6362;50.208;9.182;2024-02-21T08:09:10;14.55;;;4.72;;
12593;SDS011;6362;50.208;9.182;2024-02-21T08:11:35;14.57;;;4.63;;
12593;SDS011;6362;50.208;9.182;2024-02-21T08:14:01;13.13;;;4.45;;
12593;SDS011;6362;50.208;9.182;2024-02-21T08:16:27;14.60;;;4.45;;
12593;SDS011;6362;50.208;9.182;2024-02-21T08:18:52;11.32;;;4.38;;
12593;SDS011;6362;50.208;9.182;2024-02-21T08:21:18;13.63;;;4.88;;
12593;SDS011;6362;50.208;9.182;2024-02-21T08:23:43;11.95;;;3.90;;
12593;SDS011;6362;50.208;9.182;2024-02-21T08:26:09;10.27;;;3.67;;
12593;SDS011;6362;50.208;9.182;2024-02-21T08:28:35;13.57;;;4.65;;
12593;SDS011;6362;50.208;9.182;2024-02-21T08:31:00;9.35;;;4.55;;
12593;SDS011;6362;50.208;9.182;2024-02-21T08:33:26;10.85;;;4.30;;
12593;SDS011;6362;50.208;9.182;2024-02-21T08:35:51;10.23;;;4.03;;
12593;SDS011;6362;50.208;9.182;2024-02-21T08:38:17;16.23;;;4.03;;
12593;SDS011;6362;50.208;9.182;2024-02-21T08:40:42;9.80;;;4.13;;
12593;SDS011;6362;50.208;9.182;2024-02-21T08:43:08;12.25;;;3.70;;
12593;SDS011;6362;50.208;9.182;2024-02-21T08:45:33;9.63;;;3.30;;
12593;SDS011;6362;50.208;9.182;2024-02-21T08:47:59;9.68;;;4.35;;
12593;SDS011;6362;50.208;9.182;2024-02-21T08:50:24;11.40;;;3.85;;
12593;SDS011;6362;50.208;9.182;2024-02-21T08:52:50;8.15;;;3.65;;
12593;SDS011;6362;50.208;9.182;2024-02-21T08:55:16;9.45;;;4.32;;
12593;SDS011;6362;50.208;9.182;2024-02-21T08:57:41;13.90;;;4.05;;
12593;SDS011;6362;50.208;9.182;2024-02-21T09:00:07;9.70;;;3.55;;
12593;SDS011;6362;50.208;9.182;2024-02-21T09:02:39;9.65;;;3.58;;
12593;SDS011;6362;50.208;9.182;2024-02-21T09:05:07;13.95;;;3.75;;
12593;SDS011;6362;50.208;9.182;2024-02-21T09:07:33;9.90;;;3.95;;
12593;SDS011;6362;50.208;9.182;2024-02-21T09:09:58;13.52;;;3.70;;
12593;SDS011;6362;50.208;9.182;2024-02-21T09:12:24;10.85;;;4.03;;
12593;SDS011;6362;50.208;9.182;2024-02-21T09:14:50;7.95;;;3.35;;
12593;SDS011;6362;50.208;9.182;2024-02-21T09:17:16;10.73;;;3.28;;
12593;SDS011;6362;50.208;9.182;2024-02-21T09:19:46;10.45;;;3.58;;
12593;SDS011;6362;50.208;9.182;2024-02-21T09:22:13;11.82;;;4.28;;
12593;SDS011;6362;50.208;9.182;2024-02-21T09:24:38;14.20;;;3.90;;
12593;SDS011;6362;50.208;9.182;2024-02-21T09:27:04;8.90;;;3.47;;
12593;SDS011;6362;50.208;9.182;2024-02-21T09:29:31;9.23;;;3.92;;
12593;SDS011;6362;50.208;9.182;2024-02-21T09:31:58;9.95;;;3.80;;
12593;SDS011;6362;50.208;9.182;2024-02-21T09:34:24;9.68;;;4.40;;
12593;SDS011;6362;50.208;9.182;2024-02-21T09:36:49;12.93;;;4.20;;
12593;SDS011;6362;50.208;9.182;2024-02-21T09:39:15;12.27;;;3.95;;
12593;SDS011;6362;50.208;9.182;2024-02-21T09:41:45;10.75;;;3.83;;
12593;SDS011;6362;50.208;9.182;2024-02-21T09:44:17;10.48;;;4.03;;
12593;SDS011;6362;50.208;9.182;2024-02-21T09:47:03;11.77;;;4.00;;
12593;SDS011;6362;50.208;9.182;2024-02-21T09:49:40;9.45;;;4.03;;
12593;SDS011;6362;50.208;9.182;2024-02-21T09:52:06;11.77;;;4.82;;
12593;SDS011;6362;50.208;9.182;2024-02-21T09:54:33;7.63;;;2.65;;
12593;SDS011;6362;50.208;9.182;2024-02-21T09:56:59;10.65;;;3.30;;
12593;SDS011;6362;50.208;9.182;2024-02-21T09:59:26;9.30;;;3.30;;
12593;SDS011;6362;50.208;9.182;2024-02-21T10:01:53;10.32;;;3.90;;
12593;SDS011;6362;50.208;9.182;2024-02-21T10:04:19;7.00;;;3.38;;
12593;SDS011;6362;50.208;9.182;2024-02-21T10:06:45;12.43;;;3.50;;
12593;SDS011;6362;50.208;9.182;2024-02-21T10:09:24;6.82;;;2.83;;
12593;SDS011;6362;50.208;9.182;2024-02-21T10:11:53;7.90;;;3.47;;
12593;SDS011;6362;50.208;9.182;2024-02-21T10:14:19;10.88;;;3.10;;
12593;SDS011;6362;50.208;9.182;2024-02-21T10:16:47;7.60;;;3.15;;
12593;SDS011;6362;50.208;9.182;2024-02-21T10:19:17;12.55;;;3.78;;
12593;SDS011;6362;50.208;9.182;2024-02-21T10:22:07;11.32;;;3.38;;
12593;SDS011;6362;50.208;9.182;2024-02-21T10:24:35;6.53;;;2.70;;
12593;SDS011;6362;50.208;9.182;2024-02-21T10:27:07;7.47;;;2.38;;
12593;SDS011;6362;50.208;9.182;2024-02-21T10:29:35;7.38;;;2.20;;
12593;SDS011;6362;50.208;9.182;2024-02-21T10:32:11;6.43;;;2.42;;
12593;SDS011;6362;50.208;9.182;2024-02-21T10:34:38;9.48;;;2.22;;
12593;SDS011;6362;50.208;9.182;2024-02-21T10:37:05;9.40;;;2.88;;
12593;SDS011;6362;50.208;9.182;2024-02-21T10:39:32;8.07;;;2.22;;
12593;SDS011;6362;50.208;9.182;2024-02-21T10:41:59;10.45;;;3.20;;
12593;SDS011;6362;50.208;9.182;2024-02-21T10:44:30;10.18;;;2.80;;
12593;SDS011;6362;50.208;9.182;2024-02-21T10:46:57;10.73;;;2.80;;
12593;SDS011;6362;50.208;9.182;2024-02-21T10:49:23;10.32;;;3.10;;
12593;SDS011;6362;50.208;9.182;2024-02-21T10:52:05;6.80;;;2.03;;
12593;SDS011;6362;50.208;9.182;2024-02-21T10:57:13;10.02;;;2.97;;
12593;SDS011;6362;50.208;9.182;2024-02-21T10:59:41;7.57;;;2.78;;
12593;SDS011;6362;50.208;9.182;2024-02-21T11:02:09;8.27;;;3.00;;
12593;SDS011;6362;50.208;9.182;2024-02-21T11:04:35;7.15;;;2.90;;
12593;SDS011;6362;50.208;9.182;2024-02-21T11:07:05;7.63;;;2.42;;
12593;SDS011;6362;50.208;9.182;2024-02-21T11:09:32;9.70;;;2.42;;
12593;SDS011;6362;50.208;9.182;2024-02-21T11:11:58;9.32;;;2.33;;
12593;SDS011;6362;50.208;9.182;2024-02-21T11:14:26;11.65;;;2.85;;
12593;SDS011;6362;50.208;9.182;2024-02-21T11:16:52;9.15;;;2.40;;
12593;SDS011;6362;50.208;9.182;2024-02-21T11:19:21;9.55;;;2.95;;
12593;SDS011;6362;50.208;9.182;2024-02-21T11:21:49;5.78;;;2.13;;
12593;SDS011;6362;50.208;9.182;2024-02-21T11:24:31;11.15;;;2.75;;
12593;SDS011;6362;50.208;9.182;2024-02-21T11:27:19;10.15;;;2.80;;
12593;SDS011;6362;50.208;9.182;2024-02-21T11:29:54;9.43;;;3.20;;
12593;SDS011;6362;50.208;9.182;2024-02-21T11:32:22;14.07;;;4.32;;
12593;SDS011;6362;50.208;9.182;2024-02-21T11:34:57;10.43;;;3.05;;
12593;SDS011;6362;50.208;9.182;2024-02-21T11:37:28;8.50;;;2.53;;
12593;SDS011;6362;50.208;9.182;2024-02-21T11:39:55;12.63;;;3.03;;
12593;SDS011;6362;50.208;9.182;2024-02-21T11:42:21;9.45;;;2.88;;
12593;SDS011;6362;50.208;9.182;2024-02-21T11:44:47;8.50;;;3.10;;
12593;SDS011;6362;50.208;9.182;2024-02-21T11:47:14;13.30;;;2.88;;
12593;SDS011;6362;50.208;9.182;2024-02-21T11:49:46;10.40;;;3.25;;
12593;SDS011;6362;50.208;9.182;2024-02-21T11:52:19;6.90;;;2.28;;
12593;SDS011;6362;50.208;9.182;2024-02-21T11:54:49;11.75;;;2.63;;
12593;SDS011;6362;50.208;9.182;2024-02-21T11:57:16;5.45;;;2.63;;
12593;SDS011;6362;50.208;9.182;2024-02-21T11:59:42;8.10;;;2.53;;
12593;SDS011;6362;50.208;9.182;2024-02-21T12:02:10;8.40;;;2.88;;
12593;SDS011;6362;50.208;9.182;2024-02-21T12:04:37;9.50;;;2.22;;
12593;SDS011;6362;50.208;9.182;2024-02-21T12:07:02;9.13;;;2.53;;
12593;SDS011;6362;50.208;9.182;2024-02-21T12:09:29;10.43;;;3.00;;
12593;SDS011;6362;50.208;9.182;2024-02-21T12:11:59;7.75;;;3.20;;
12593;SDS011;6362;50.208;9.182;2024-02-21T12:14:26;7.90;;;2.80;;
12593;SDS011;6362;50.208;9.182;2024-02-21T12:16:53;9.25;;;3.00;;
12593;SDS011;6362;50.208;9.182;2024-02-21T12:19:19;10.48;;;3.08;;
12593;SDS011;6362;50.208;9.182;2024-02-21T12:21:45;8.63;;;2.63;;
12593;SDS011;6362;50.208;9.182;2024-02-21T12:24:14;9.50;;;2.88;;
12593;SDS011;6362;50.208;9.182;2024-02-21T12:26:50;7.00;;;2.53;;
12593;SDS011;6362;50.208;9.182;2024-02-21T12:29:19;4.20;;;1.85;;
12593;SDS011;6362;50.208;9.182;2024-02-21T12:31:46;7.25;;;2.22;;
12593;SDS011;6362;50.208;9.182;2024-02-21T12:34:11;10.23;;;3.40;;
12593;SDS011;6362;50.208;9.182;2024-02-21T12:36:43;6.15;;;2.42;;
12593;SDS011;6362;50.208;9.182;2024-02-21T12:39:11;11.07;;;3.58;;
12593;SDS011;6362;50.208;9.182;2024-02-21T12:41:37;6.38;;;2.30;;
12593;SDS011;6362;50.208;9.182;2024-02-21T12:44:06;10.23;;;2.95;;
12593;SDS011;6362;50.208;9.182;2024-02-21T12:46:32;6.75;;;2.28;;
12593;SDS011;6362;50.208;9.182;2024-02-21T12:48:58;9.48;;;2.90;;
12593;SDS011;6362;50.208;9.182;2024-02-21T12:51:24;7.20;;;2.53;;
12593;SDS011;6362;50.208;9.182;2024-02-21T12:53:49;10.20;;;2.58;;
12593;SDS011;6362;50.208;9.182;2024-02-21T12:56:15;9.10;;;2.83;;
12593;SDS011;6362;50.208;9.182;2024-02-21T12:58:41;9.57;;;3.00;;
12593;SDS011;6362;50.208;9.182;2024-02-21T13:01:07;8.30;;;2.72;;
12593;SDS011;6362;50.208;9.182;2024-02-21T13:03:32;10.05;;;3.10;;
12593;SDS011;6362;50.208;9.182;2024-02-21T13:05:58;6.28;;;2.47;;
12593;SDS011;6362;50.208;9.182;2024-02-21T13:08:24;5.82;;;2.75;;
12593;SDS011;6362;50.208;9.182;2024-02-21T13:10:50;8.15;;;2.50;;
12593;SDS011;6362;50.208;9.182;2024-02-21T13:13:15;8.82;;;3.10;;
12593;SDS011;6362;50.208;9.182;2024-02-21T13:15:41;5.90;;;2.78;;
12593;SDS011;6362;50.208;9.182;2024-02-21T13:18:08;8.15;;;2.97;;
12593;SDS011;6362;50.208;9.182;2024-02-21T13:20:34;6.07;;;2.65;;
12593;SDS011;6362;50.208;9.182;2024-02-21T13:23:01;8.02;;;2.38;;
12593;SDS011;6362;50.208;9.182;2024-02-21T13:25:26;11.63;;;2.90;;
12593;SDS011;6362;50.208;9.182;2024-02-21T13:27:52;10.48;;;2.97;;
12593;SDS011;6362;50.208;9.182;2024-02-21T13:30:17;10.65;;;2.83;;
12593;SDS011;6362;50.208;9.182;2024-02-21T13:32:43;7.82;;;2.83;;
12593;SDS011;6362;50.208;9.182;2024-02-21T13:35:11;10.48;;;2.60;;
12593;SDS011;6362;50.208;9.182;2024-02-21T13:37:37;16.20;;;3.38;;
12593;SDS011;6362;50.208;9.182;2024-02-21T13:40:03;11.52;;;3.22;;
12593;SDS011;6362;50.208;9.182;2024-02-21T13:42:29;9.90;;;2.97;;
12593;SDS011;6362;50.208;9.182;2024-02-21T13:44:55;12.15;;;3.72;;
12593;SDS011;6362;50.208;9.182;2024-02-21T13:47:20;7.03;;;2.50;;
12593;SDS011;6362;50.208;9.182;2024-02-21T13:49:46;9.07;;;2.70;;
12593;SDS011;6362;50.208;9.182;2024-02-21T13:52:12;8.07;;;2.45;;
12593;SDS011;6362;50.208;9.182;2024-02-21T13:54:39;7.13;;;2.63;;
12593;SDS011;6362;50.208;9.182;2024-02-21T13:57:05;8.52;;;2.50;;
12593;SDS011;6362;50.208;9.182;2024-02-21T13:59:30;9.05;;;2.90;;
12593;SDS011;6362;50.208;9.182;2024-02-21T14:01:58;8.75;;;3.22;;
12593;SDS011;6362;50.208;9.182;2024-02-21T14:04:24;6.80;;;2.33;;
12593;SDS011;6362;50.208;9.182;2024-02-21T14:06:49;9.52;;;3.42;;
12593;SDS011;6362;50.208;9.182;2024-02-21T14:09:15;6.22;;;3.15;;
12593;SDS011;6362;50.208;9.182;2024-02-21T14:11:40;8.93;;;2.78;;
12593;SDS011;6362;50.208;9.182;2024-02-21T14:14:07;10.77;;;3.40;;
12593;SDS011;6362;50.208;9.182;2024-02-21T14:16:33;7.68;;;2.75;;
12593;SDS011;6362;50.208;9.182;2024-02-21T14:18:58;5.45;;;2.92;;
12593;SDS011;6362;50.208;9.182;2024-02-21T14:21:24;8.18;;;3.28;;
12593;SDS011;6362;50.208;9.182;2024-02-21T14:23:50;10.80;;;3.10;;
12593;SDS011;6362;50.208;9.182;2024-02-21T14:26:16;10.65;;;3.10;;
12593;SDS011;6362;50.208;9.182;2024-02-21T14:28:41;12.60;;;3.30;;
12593;SDS011;6362;50.208;9.182;2024-02-21T14:31:07;9.90;;;3.25;;
12593;SDS011;6362;50.208;9.182;2024-02-21T14:33:37;8.57;;;2.30;;
12593;SDS011;6362;50.208;9.182;2024-02-21T14:36:03;12.80;;;3.22;;
12593;SDS011;6362;50.208;9.182;2024-02-21T14:38:29;8.18;;;3.00;;
12593;SDS011;6362;50.208;9.182;2024-02-21T14:40:54;8.65;;;2.28;;
12593;SDS011;6362;50.208;9.182;2024-02-21T14:43:20;7.22;;;1.92;;
12593;SDS011;6362;50.208;9.182;2024-02-21T14:45:49;8.38;;;2.92;;
12593;SDS011;6362;50.208;9.182;2024-02-21T14:48:15;8.52;;;2.15;;
12593;SDS011;6362;50.208;9.182;2024-02-21T14:50:40;11.77;;;2.38;;